sensor_id;sensor_type;location;lat;lon;timestamp;temperature;humidity
71291;DHT22;59073;51.994;4.448;2023-05-10T00:01:27;13.08;82.28
71291;DHT22;59073;51.994;4.448;2023-05-10T00:03:53;13.02;82.41
71291;DHT22;59073;51.994;4.448;2023-05-10T00:06:18;13.00;82.44
71291;DHT22;59073;51.994;4.448;2023-05-10T00:08:44;12.90;82.38
71291;DHT22;59073;51.994;4.448;2023-05-10T00:11:10;12.73;82.46
71291;DHT22;59073;51.994;4.448;2023-05-10T00:13:36;12.51;83.10
71291;DHT22;59073;51.994;4.448;2023-05-10T00:16:01;12.54;83.27
71291;DHT22;59073;51.994;4.448;2023-05-10T00:18:26;12.59;83.50
71291;DHT22;59073;51.994;4.448;2023-05-10T00:20:52;12.63;83.77
71291;DHT22;59073;51.994;4.448;2023-05-10T00:23:17;12.65;83.57
71291;DHT22;59073;51.994;4.448;2023-05-10T00:25:43;12.71;83.80
71291;DHT22;59073;51.994;4.448;2023-05-10T00:28:08;12.67;83.81
71291;DHT22;59073;51.994;4.448;2023-05-10T00:30:34;12.70;83.76
71291;DHT22;59073;51.994;4.448;2023-05-10T00:32:59;12.68;83.99
71291;DHT22;59073;51.994;4.448;2023-05-10T00:35:25;12.76;84.36
71291;DHT22;59073;51.994;4.448;2023-05-10T00:37:51;12.95;84.45
71291;DHT22;59073;51.994;4.448;2023-05-10T00:40:16;13.01;84.49
71291;DHT22;59073;51.994;4.448;2023-05-10T00:42:42;13.07;84.74
71291;DHT22;59073;51.994;4.448;2023-05-10T00:45:07;13.18;84.94
71291;DHT22;59073;51.994;4.448;2023-05-10T00:47:34;13.28;85.15
71291;DHT22;59073;51.994;4.448;2023-05-10T00:50:00;13.31;85.61
71291;DHT22;59073;51.994;4.448;2023-05-10T00:52:27;13.41;85.76
71291;DHT22;59073;51.994;4.448;2023-05-10T00:54:53;13.49;85.94
71291;DHT22;59073;51.994;4.448;2023-05-10T00:57:20;13.60;85.63
71291;DHT22;59073;51.994;4.448;2023-05-10T00:59:46;13.69;85.44
71291;DHT22;59073;51.994;4.448;2023-05-10T01:02:11;13.80;85.31
71291;DHT22;59073;51.994;4.448;2023-05-10T01:04:38;13.70;85.64
71291;DHT22;59073;51.994;4.448;2023-05-10T01:07:05;13.65;86.07
71291;DHT22;59073;51.994;4.448;2023-05-10T01:09:30;13.66;86.03
71291;DHT22;59073;51.994;4.448;2023-05-10T01:11:57;13.73;86.30
71291;DHT22;59073;51.994;4.448;2023-05-10T01:14:22;13.77;86.37
71291;DHT22;59073;51.994;4.448;2023-05-10T01:16:50;13.93;85.89
71291;DHT22;59073;51.994;4.448;2023-05-10T01:19:29;13.93;85.56
71291;DHT22;59073;51.994;4.448;2023-05-10T01:22:28;14.01;85.20
71291;DHT22;59073;51.994;4.448;2023-05-10T01:30:51;13.97;84.83
71291;DHT22;59073;51.994;4.448;2023-05-10T01:33:35;13.97;85.18
71291;DHT22;59073;51.994;4.448;2023-05-10T01:41:18;14.14;84.43
71291;DHT22;59073;51.994;4.448;2023-05-10T01:44:01;14.16;84.39
71291;DHT22;59073;51.994;4.448;2023-05-10T01:46:35;14.17;84.14
71291;DHT22;59073;51.994;4.448;2023-05-10T01:49:07;14.27;84.42
71291;DHT22;59073;51.994;4.448;2023-05-10T01:51:41;14.34;84.25
71291;DHT22;59073;51.994;4.448;2023-05-10T01:54:13;14.41;84.29
71291;DHT22;59073;51.994;4.448;2023-05-10T01:56:40;14.35;84.40
71291;DHT22;59073;51.994;4.448;2023-05-10T01:59:12;14.41;84.60
71291;DHT22;59073;51.994;4.448;2023-05-10T02:01:41;14.40;84.64
71291;DHT22;59073;51.994;4.448;2023-05-10T02:04:09;14.44;84.65
71291;DHT22;59073;51.994;4.448;2023-05-10T02:06:38;14.40;84.71
71291;DHT22;59073;51.994;4.448;2023-05-10T02:09:06;14.45;84.69
71291;DHT22;59073;51.994;4.448;2023-05-10T02:11:33;14.51;84.56
71291;DHT22;59073;51.994;4.448;2023-05-10T02:14:00;14.55;84.56
71291;DHT22;59073;51.994;4.448;2023-05-10T02:16:27;14.61;84.34
71291;DHT22;59073;51.994;4.448;2023-05-10T02:18:58;14.64;84.09
71291;DHT22;59073;51.994;4.448;2023-05-10T02:21:27;14.71;84.35
71291;DHT22;59073;51.994;4.448;2023-05-10T02:23:55;14.73;83.98
71291;DHT22;59073;51.994;4.448;2023-05-10T02:26:23;14.64;83.83
71291;DHT22;59073;51.994;4.448;2023-05-10T02:28:52;14.64;84.14
71291;DHT22;59073;51.994;4.448;2023-05-10T02:31:18;14.61;84.17
71291;DHT22;59073;51.994;4.448;2023-05-10T02:33:46;14.67;84.03
71291;DHT22;59073;51.994;4.448;2023-05-10T02:36:13;14.61;84.17
71291;DHT22;59073;51.994;4.448;2023-05-10T02:38:40;14.71;84.14
71291;DHT22;59073;51.994;4.448;2023-05-10T02:41:08;14.72;83.91
71291;DHT22;59073;51.994;4.448;2023-05-10T02:43:35;14.68;83.81
71291;DHT22;59073;51.994;4.448;2023-05-10T02:46:01;14.71;83.96
71291;DHT22;59073;51.994;4.448;2023-05-10T02:48:28;14.71;83.96
71291;DHT22;59073;51.994;4.448;2023-05-10T02:50:56;14.73;83.94
71291;DHT22;59073;51.994;4.448;2023-05-10T02:53:31;14.57;84.18
71291;DHT22;59073;51.994;4.448;2023-05-10T02:56:01;14.52;84.30
71291;DHT22;59073;51.994;4.448;2023-05-10T02:58:29;14.41;84.46
71291;DHT22;59073;51.994;4.448;2023-05-10T03:00:55;14.37;85.04
71291;DHT22;59073;51.994;4.448;2023-05-10T03:03:20;14.32;85.01
71291;DHT22;59073;51.994;4.448;2023-05-10T03:05:46;14.25;85.16
71291;DHT22;59073;51.994;4.448;2023-05-10T03:08:11;14.20;85.37
71291;DHT22;59073;51.994;4.448;2023-05-10T03:10:50;14.27;85.21
71291;DHT22;59073;51.994;4.448;2023-05-10T03:13:39;14.32;85.11
71291;DHT22;59073;51.994;4.448;2023-05-10T03:16:13;14.32;85.07
71291;DHT22;59073;51.994;4.448;2023-05-10T03:19:32;14.32;85.09
71291;DHT22;59073;51.994;4.448;2023-05-10T03:21:43;14.46;84.84
71291;DHT22;59073;51.994;4.448;2023-05-10T03:24:12;14.48;84.64
71291;DHT22;59073;51.994;4.448;2023-05-10T03:26:43;14.34;84.94
71291;DHT22;59073;51.994;4.448;2023-05-10T03:29:10;14.20;85.33
71291;DHT22;59073;51.994;4.448;2023-05-10T03:31:38;14.17;85.45
71291;DHT22;59073;51.994;4.448;2023-05-10T03:34:03;14.20;85.57
71291;DHT22;59073;51.994;4.448;2023-05-10T03:36:29;14.20;85.60
71291;DHT22;59073;51.994;4.448;2023-05-10T03:38:54;14.24;85.47
71291;DHT22;59073;51.994;4.448;2023-05-10T03:41:20;14.35;85.17
71291;DHT22;59073;51.994;4.448;2023-05-10T03:43:45;14.30;85.00
71291;DHT22;59073;51.994;4.448;2023-05-10T03:46:11;14.18;85.27
71291;DHT22;59073;51.994;4.448;2023-05-10T03:48:36;14.13;85.35
71291;DHT22;59073;51.994;4.448;2023-05-10T03:51:02;14.11;85.49
71291;DHT22;59073;51.994;4.448;2023-05-10T03:53:27;14.09;85.49
71291;DHT22;59073;51.994;4.448;2023-05-10T03:55:52;14.10;85.43
71291;DHT22;59073;51.994;4.448;2023-05-10T03:58:18;14.04;85.49
71291;DHT22;59073;51.994;4.448;2023-05-10T04:00:44;14.00;85.71
71291;DHT22;59073;51.994;4.448;2023-05-10T04:03:14;13.96;85.72
71291;DHT22;59073;51.994;4.448;2023-05-10T04:05:39;13.90;85.81
71291;DHT22;59073;51.994;4.448;2023-05-10T04:08:05;13.93;85.95
71291;DHT22;59073;51.994;4.448;2023-05-10T04:10:31;13.91;85.89
71291;DHT22;59073;51.994;4.448;2023-05-10T04:12:56;13.89;86.18
71291;DHT22;59073;51.994;4.448;2023-05-10T04:15:22;13.89;86.02
71291;DHT22;59073;51.994;4.448;2023-05-10T04:17:47;13.84;86.22
71291;DHT22;59073;51.994;4.448;2023-05-10T04:20:13;13.76;86.33
71291;DHT22;59073;51.994;4.448;2023-05-10T04:22:39;13.69;86.50
71291;DHT22;59073;51.994;4.448;2023-05-10T04:25:05;13.60;86.81
71291;DHT22;59073;51.994;4.448;2023-05-10T04:27:31;13.53;87.01
71291;DHT22;59073;51.994;4.448;2023-05-10T04:29:57;13.58;87.15
71291;DHT22;59073;51.994;4.448;2023-05-10T04:32:22;13.55;86.81
71291;DHT22;59073;51.994;4.448;2023-05-10T04:34:48;13.39;86.93
71291;DHT22;59073;51.994;4.448;2023-05-10T04:37:13;13.38;87.11
71291;DHT22;59073;51.994;4.448;2023-05-10T04:39:39;13.34;87.29
71291;DHT22;59073;51.994;4.448;2023-05-10T04:42:04;13.26;87.00
71291;DHT22;59073;51.994;4.448;2023-05-10T04:44:31;13.29;87.40
71291;DHT22;59073;51.994;4.448;2023-05-10T04:46:57;13.35;87.33
71291;DHT22;59073;51.994;4.448;2023-05-10T04:49:23;13.21;87.48
71291;DHT22;59073;51.994;4.448;2023-05-10T04:51:48;13.21;87.67
71291;DHT22;59073;51.994;4.448;2023-05-10T04:54:14;13.32;87.42
71291;DHT22;59073;51.994;4.448;2023-05-10T04:56:39;13.41;86.86
71291;DHT22;59073;51.994;4.448;2023-05-10T04:59:05;13.55;86.87
71291;DHT22;59073;51.994;4.448;2023-05-10T05:01:31;13.69;86.19
71291;DHT22;59073;51.994;4.448;2023-05-10T05:03:56;13.72;85.99
71291;DHT22;59073;51.994;4.448;2023-05-10T05:06:21;13.70;85.96
71291;DHT22;59073;51.994;4.448;2023-05-10T05:08:47;13.66;85.19
71291;DHT22;59073;51.994;4.448;2023-05-10T05:11:14;13.65;85.60
71291;DHT22;59073;51.994;4.448;2023-05-10T05:13:40;13.69;85.69
71291;DHT22;59073;51.994;4.448;2023-05-10T05:16:05;13.74;85.72
71291;DHT22;59073;51.994;4.448;2023-05-10T05:18:31;13.86;85.42
71291;DHT22;59073;51.994;4.448;2023-05-10T05:20:56;13.87;85.32
71291;DHT22;59073;51.994;4.448;2023-05-10T05:23:21;13.87;84.91
71291;DHT22;59073;51.994;4.448;2023-05-10T05:25:51;13.93;85.01
71291;DHT22;59073;51.994;4.448;2023-05-10T05:28:17;13.94;84.18
71291;DHT22;59073;51.994;4.448;2023-05-10T05:30:43;13.91;84.34
71291;DHT22;59073;51.994;4.448;2023-05-10T05:33:08;13.87;84.91
71291;DHT22;59073;51.994;4.448;2023-05-10T05:35:34;13.99;84.53
71291;DHT22;59073;51.994;4.448;2023-05-10T05:37:59;14.07;84.40
71291;DHT22;59073;51.994;4.448;2023-05-10T05:40:25;14.13;84.21
71291;DHT22;59073;51.994;4.448;2023-05-10T05:42:50;14.20;83.89
71291;DHT22;59073;51.994;4.448;2023-05-10T05:45:15;14.22;83.29
71291;DHT22;59073;51.994;4.448;2023-05-10T05:47:41;14.32;83.56
71291;DHT22;59073;51.994;4.448;2023-05-10T05:50:07;14.31;83.54
71291;DHT22;59073;51.994;4.448;2023-05-10T05:52:32;14.28;83.53
71291;DHT22;59073;51.994;4.448;2023-05-10T05:54:58;14.40;83.58
71291;DHT22;59073;51.994;4.448;2023-05-10T05:57:23;14.54;83.34
71291;DHT22;59073;51.994;4.448;2023-05-10T05:59:49;14.45;82.94
71291;DHT22;59073;51.994;4.448;2023-05-10T06:02:14;14.31;83.21
71291;DHT22;59073;51.994;4.448;2023-05-10T06:04:39;14.48;83.78
71291;DHT22;59073;51.994;4.448;2023-05-10T06:07:05;14.57;82.69
71291;DHT22;59073;51.994;4.448;2023-05-10T06:09:31;14.68;83.01
71291;DHT22;59073;51.994;4.448;2023-05-10T06:11:56;15.03;83.16
71291;DHT22;59073;51.994;4.448;2023-05-10T06:14:22;15.47;82.26
71291;DHT22;59073;51.994;4.448;2023-05-10T06:16:48;15.82;80.56
71291;DHT22;59073;51.994;4.448;2023-05-10T06:19:13;16.28;80.55
71291;DHT22;59073;51.994;4.448;2023-05-10T06:21:38;16.08;78.08
71291;DHT22;59073;51.994;4.448;2023-05-10T06:24:05;16.88;77.76
71291;DHT22;59073;51.994;4.448;2023-05-10T06:26:32;17.01;77.33
71291;DHT22;59073;51.994;4.448;2023-05-10T06:28:57;16.52;76.33
71291;DHT22;59073;51.994;4.448;2023-05-10T06:31:23;16.52;77.67
71291;DHT22;59073;51.994;4.448;2023-05-10T06:33:48;16.43;78.43
71291;DHT22;59073;51.994;4.448;2023-05-10T06:36:13;16.33;78.28
71291;DHT22;59073;51.994;4.448;2023-05-10T06:38:39;16.23;77.72
71291;DHT22;59073;51.994;4.448;2023-05-10T06:41:04;16.25;78.15
71291;DHT22;59073;51.994;4.448;2023-05-10T06:43:30;16.29;77.67
71291;DHT22;59073;51.994;4.448;2023-05-10T06:45:56;16.40;78.71
71291;DHT22;59073;51.994;4.448;2023-05-10T06:48:21;16.69;78.88
71291;DHT22;59073;51.994;4.448;2023-05-10T06:50:47;16.71;78.43
71291;DHT22;59073;51.994;4.448;2023-05-10T06:53:12;16.87;77.28
71291;DHT22;59073;51.994;4.448;2023-05-10T06:55:38;16.91;77.85
71291;DHT22;59073;51.994;4.448;2023-05-10T06:58:04;16.81;77.90
71291;DHT22;59073;51.994;4.448;2023-05-10T07:00:30;16.64;78.81
71291;DHT22;59073;51.994;4.448;2023-05-10T07:02:56;16.56;78.84
71291;DHT22;59073;51.994;4.448;2023-05-10T07:05:21;16.43;78.56
71291;DHT22;59073;51.994;4.448;2023-05-10T07:07:47;16.33;79.09
71291;DHT22;59073;51.994;4.448;2023-05-10T07:10:12;16.29;79.71
71291;DHT22;59073;51.994;4.448;2023-05-10T07:12:38;16.28;79.27
71291;DHT22;59073;51.994;4.448;2023-05-10T07:15:05;16.43;79.03
71291;DHT22;59073;51.994;4.448;2023-05-10T07:17:30;16.66;79.15
71291;DHT22;59073;51.994;4.448;2023-05-10T07:19:56;16.77;78.91
71291;DHT22;59073;51.994;4.448;2023-05-10T07:22:21;16.62;80.15
71291;DHT22;59073;51.994;4.448;2023-05-10T07:24:47;16.69;79.86
71291;DHT22;59073;51.994;4.448;2023-05-10T07:27:12;16.67;79.33
71291;DHT22;59073;51.994;4.448;2023-05-10T07:29:38;16.63;79.69
71291;DHT22;59073;51.994;4.448;2023-05-10T07:32:04;16.48;79.59
71291;DHT22;59073;51.994;4.448;2023-05-10T07:34:30;16.23;80.29
71291;DHT22;59073;51.994;4.448;2023-05-10T07:36:58;16.13;80.33
71291;DHT22;59073;51.994;4.448;2023-05-10T07:39:23;16.09;80.06
71291;DHT22;59073;51.994;4.448;2023-05-10T07:41:49;16.22;80.23
71291;DHT22;59073;51.994;4.448;2023-05-10T07:44:14;16.26;79.82
71291;DHT22;59073;51.994;4.448;2023-05-10T07:46:40;16.36;79.11
71291;DHT22;59073;51.994;4.448;2023-05-10T07:49:05;16.48;78.75
71291;DHT22;59073;51.994;4.448;2023-05-10T07:51:31;16.48;78.73
71291;DHT22;59073;51.994;4.448;2023-05-10T07:53:56;16.48;78.49
71291;DHT22;59073;51.994;4.448;2023-05-10T07:56:28;16.40;78.95
71291;DHT22;59073;51.994;4.448;2023-05-10T07:58:58;16.25;79.50
71291;DHT22;59073;51.994;4.448;2023-05-10T08:01:25;16.25;80.02
71291;DHT22;59073;51.994;4.448;2023-05-10T08:03:50;16.36;79.62
71291;DHT22;59073;51.994;4.448;2023-05-10T08:06:20;16.39;79.84
71291;DHT22;59073;51.994;4.448;2023-05-10T08:08:47;16.36;79.37
71291;DHT22;59073;51.994;4.448;2023-05-10T08:11:17;16.45;79.46
71291;DHT22;59073;51.994;4.448;2023-05-10T08:13:44;16.57;79.24
71291;DHT22;59073;51.994;4.448;2023-05-10T08:16:10;16.63;78.98
71291;DHT22;59073;51.994;4.448;2023-05-10T08:18:36;16.83;78.99
71291;DHT22;59073;51.994;4.448;2023-05-10T08:21:02;17.00;77.48
71291;DHT22;59073;51.994;4.448;2023-05-10T08:23:27;17.00;76.77
71291;DHT22;59073;51.994;4.448;2023-05-10T08:25:53;17.12;77.23
71291;DHT22;59073;51.994;4.448;2023-05-10T08:28:18;17.07;77.57
71291;DHT22;59073;51.994;4.448;2023-05-10T08:30:44;17.12;77.88
71291;DHT22;59073;51.994;4.448;2023-05-10T08:33:09;17.15;78.00
71291;DHT22;59073;51.994;4.448;2023-05-10T08:35:35;17.27;77.50
71291;DHT22;59073;51.994;4.448;2023-05-10T08:38:01;17.32;75.36
71291;DHT22;59073;51.994;4.448;2023-05-10T08:40:27;17.49;75.08
71291;DHT22;59073;51.994;4.448;2023-05-10T08:43:04;17.56;74.69
71291;DHT22;59073;51.994;4.448;2023-05-10T08:45:35;17.66;75.45
71291;DHT22;59073;51.994;4.448;2023-05-10T08:48:02;17.52;76.21
71291;DHT22;59073;51.994;4.448;2023-05-10T08:50:31;17.49;76.86
71291;DHT22;59073;51.994;4.448;2023-05-10T08:53:00;17.42;76.94
71291;DHT22;59073;51.994;4.448;2023-05-10T08:55:27;17.41;76.77
71291;DHT22;59073;51.994;4.448;2023-05-10T08:57:53;17.49;76.55
71291;DHT22;59073;51.994;4.448;2023-05-10T09:00:19;17.61;76.83
71291;DHT22;59073;51.994;4.448;2023-05-10T09:02:45;17.58;76.26
71291;DHT22;59073;51.994;4.448;2023-05-10T09:05:13;17.48;76.03
71291;DHT22;59073;51.994;4.448;2023-05-10T09:07:41;17.20;76.24
71291;DHT22;59073;51.994;4.448;2023-05-10T09:10:08;17.06;75.81
71291;DHT22;59073;51.994;4.448;2023-05-10T09:12:35;17.03;77.32
71291;DHT22;59073;51.994;4.448;2023-05-10T09:15:01;16.93;78.61
71291;DHT22;59073;51.994;4.448;2023-05-10T09:17:29;16.94;77.94
71291;DHT22;59073;51.994;4.448;2023-05-10T09:19:59;16.81;78.01
71291;DHT22;59073;51.994;4.448;2023-05-10T09:22:24;16.23;77.73
71291;DHT22;59073;51.994;4.448;2023-05-10T09:25:12;15.81;80.11
71291;DHT22;59073;51.994;4.448;2023-05-10T09:27:40;15.87;79.41
71291;DHT22;59073;51.994;4.448;2023-05-10T09:30:07;15.97;79.51
71291;DHT22;59073;51.994;4.448;2023-05-10T09:32:40;16.21;79.65
71291;DHT22;59073;51.994;4.448;2023-05-10T09:35:27;16.48;77.22
71291;DHT22;59073;51.994;4.448;2023-05-10T09:37:55;16.66;77.68
71291;DHT22;59073;51.994;4.448;2023-05-10T09:40:26;16.88;77.03
71291;DHT22;59073;51.994;4.448;2023-05-10T09:45:21;17.27;76.24
71291;DHT22;59073;51.994;4.448;2023-05-10T09:47:47;17.79;76.03
71291;DHT22;59073;51.994;4.448;2023-05-10T09:50:13;17.96;74.76
71291;DHT22;59073;51.994;4.448;2023-05-10T09:52:59;18.43;72.27
71291;DHT22;59073;51.994;4.448;2023-05-10T09:55:37;18.84;72.83
71291;DHT22;59073;51.994;4.448;2023-05-10T09:58:03;19.15;71.33
71291;DHT22;59073;51.994;4.448;2023-05-10T10:00:36;19.36;71.71
71291;DHT22;59073;51.994;4.448;2023-05-10T10:03:03;19.36;71.39
71291;DHT22;59073;51.994;4.448;2023-05-10T10:05:29;19.39;71.81
71291;DHT22;59073;51.994;4.448;2023-05-10T10:07:57;19.64;71.51
71291;DHT22;59073;51.994;4.448;2023-05-10T10:10:27;19.90;71.71
71291;DHT22;59073;51.994;4.448;2023-05-10T10:12:54;19.88;70.09
71291;DHT22;59073;51.994;4.448;2023-05-10T10:15:23;19.87;70.54
71291;DHT22;59073;51.994;4.448;2023-05-10T10:17:50;19.80;69.95
71291;DHT22;59073;51.994;4.448;2023-05-10T10:20:18;19.40;69.91
71291;DHT22;59073;51.994;4.448;2023-05-10T10:22:44;19.05;70.28
71291;DHT22;59073;51.994;4.448;2023-05-10T10:25:13;18.98;72.56
71291;DHT22;59073;51.994;4.448;2023-05-10T10:27:56;18.62;71.14
71291;DHT22;59073;51.994;4.448;2023-05-10T10:35:32;17.78;73.60
71291;DHT22;59073;51.994;4.448;2023-05-10T10:38:00;17.14;75.13
71291;DHT22;59073;51.994;4.448;2023-05-10T10:40:33;17.12;76.17
71291;DHT22;59073;51.994;4.448;2023-05-10T10:43:21;17.73;75.02
71291;DHT22;59073;51.994;4.448;2023-05-10T10:46:16;17.89;73.88
71291;DHT22;59073;51.994;4.448;2023-05-10T10:51:37;17.89;74.50
71291;DHT22;59073;51.994;4.448;2023-05-10T10:54:10;17.80;74.18
71291;DHT22;59073;51.994;4.448;2023-05-10T10:56:35;17.69;74.78
71291;DHT22;59073;51.994;4.448;2023-05-10T10:59:01;17.30;74.80
71291;DHT22;59073;51.994;4.448;2023-05-10T11:01:33;16.60;77.23
71291;DHT22;59073;51.994;4.448;2023-05-10T11:06:33;17.46;75.70
71291;DHT22;59073;51.994;4.448;2023-05-10T11:09:05;17.20;73.84
71291;DHT22;59073;51.994;4.448;2023-05-10T11:11:31;16.63;76.40
71291;DHT22;59073;51.994;4.448;2023-05-10T11:14:03;16.66;77.51
71291;DHT22;59073;51.994;4.448;2023-05-10T11:16:41;16.73;76.70
71291;DHT22;59073;51.994;4.448;2023-05-10T11:19:10;16.95;77.21
71291;DHT22;59073;51.994;4.448;2023-05-10T11:24:21;17.25;74.22
71291;DHT22;59073;51.994;4.448;2023-05-10T11:26:50;17.20;73.42
71291;DHT22;59073;51.994;4.448;2023-05-10T11:29:16;17.75;75.08
71291;DHT22;59073;51.994;4.448;2023-05-10T11:31:43;18.12;73.75
71291;DHT22;59073;51.994;4.448;2023-05-10T11:34:10;18.45;72.40
71291;DHT22;59073;51.994;4.448;2023-05-10T11:36:36;18.41;72.92
71291;DHT22;59073;51.994;4.448;2023-05-10T11:39:03;18.41;72.02
71291;DHT22;59073;51.994;4.448;2023-05-10T11:41:30;17.76;70.59
71291;DHT22;59073;51.994;4.448;2023-05-10T11:43:57;17.18;73.49
71291;DHT22;59073;51.994;4.448;2023-05-10T11:46:26;17.21;73.96
71291;DHT22;59073;51.994;4.448;2023-05-10T11:48:55;17.49;74.88
71291;DHT22;59073;51.994;4.448;2023-05-10T11:51:24;17.48;74.37
71291;DHT22;59073;51.994;4.448;2023-05-10T11:53:52;17.65;73.71
71291;DHT22;59073;51.994;4.448;2023-05-10T11:56:18;17.42;72.85
71291;DHT22;59073;51.994;4.448;2023-05-10T11:58:43;17.34;74.87
71291;DHT22;59073;51.994;4.448;2023-05-10T12:01:10;17.45;75.30
71291;DHT22;59073;51.994;4.448;2023-05-10T12:03:37;17.56;74.33
71291;DHT22;59073;51.994;4.448;2023-05-10T12:06:03;17.69;73.37
71291;DHT22;59073;51.994;4.448;2023-05-10T12:08:30;17.49;73.88
71291;DHT22;59073;51.994;4.448;2023-05-10T12:11:07;17.20;74.87
71291;DHT22;59073;51.994;4.448;2023-05-10T12:13:38;17.10;75.08
71291;DHT22;59073;51.994;4.448;2023-05-10T12:16:24;16.93;76.72
71291;DHT22;59073;51.994;4.448;2023-05-10T12:18:52;16.69;76.90
71291;DHT22;59073;51.994;4.448;2023-05-10T12:21:20;16.66;75.84
71291;DHT22;59073;51.994;4.448;2023-05-10T12:23:48;16.83;75.67
71291;DHT22;59073;51.994;4.448;2023-05-10T12:26:15;16.80;76.93
71291;DHT22;59073;51.994;4.448;2023-05-10T12:28:40;16.80;76.16
71291;DHT22;59073;51.994;4.448;2023-05-10T12:31:06;17.15;77.26
71291;DHT22;59073;51.994;4.448;2023-05-10T12:33:42;17.36;74.85
71291;DHT22;59073;51.994;4.448;2023-05-10T12:36:09;17.62;74.33
71291;DHT22;59073;51.994;4.448;2023-05-10T12:38:38;17.61;73.47
71291;DHT22;59073;51.994;4.448;2023-05-10T12:41:09;17.69;73.25
71291;DHT22;59073;51.994;4.448;2023-05-10T12:43:36;17.45;72.55
71291;DHT22;59073;51.994;4.448;2023-05-10T12:46:12;17.35;74.47
71291;DHT22;59073;51.994;4.448;2023-05-10T12:48:39;17.68;73.91
71291;DHT22;59073;51.994;4.448;2023-05-10T12:51:06;17.68;72.63
71291;DHT22;59073;51.994;4.448;2023-05-10T12:53:35;17.53;71.32
71291;DHT22;59073;51.994;4.448;2023-05-10T12:56:00;17.96;74.12
71291;DHT22;59073;51.994;4.448;2023-05-10T12:58:26;18.30;72.95
71291;DHT22;59073;51.994;4.448;2023-05-10T13:00:52;18.26;70.59
71291;DHT22;59073;51.994;4.448;2023-05-10T13:03:17;18.09;70.38
71291;DHT22;59073;51.994;4.448;2023-05-10T13:05:43;17.85;72.41
71291;DHT22;59073;51.994;4.448;2023-05-10T13:08:08;17.63;71.81
71291;DHT22;59073;51.994;4.448;2023-05-10T13:10:34;17.32;74.12
71291;DHT22;59073;51.994;4.448;2023-05-10T13:12:59;17.30;73.93
71291;DHT22;59073;51.994;4.448;2023-05-10T13:15:25;17.45;74.16
71291;DHT22;59073;51.994;4.448;2023-05-10T13:17:52;17.52;73.52
71291;DHT22;59073;51.994;4.448;2023-05-10T13:20:18;17.72;73.77
71291;DHT22;59073;51.994;4.448;2023-05-10T13:22:44;17.86;73.75
71291;DHT22;59073;51.994;4.448;2023-05-10T13:25:10;18.03;72.47
71291;DHT22;59073;51.994;4.448;2023-05-10T13:27:36;18.29;71.64
71291;DHT22;59073;51.994;4.448;2023-05-10T13:30:02;18.09;71.05
71291;DHT22;59073;51.994;4.448;2023-05-10T13:32:28;17.83;70.94
71291;DHT22;59073;51.994;4.448;2023-05-10T13:34:54;17.14;73.04
71291;DHT22;59073;51.994;4.448;2023-05-10T13:37:20;17.25;74.76
71291;DHT22;59073;51.994;4.448;2023-05-10T13:39:45;17.04;73.36
71291;DHT22;59073;51.994;4.448;2023-05-10T13:42:11;16.79;75.67
71291;DHT22;59073;51.994;4.448;2023-05-10T13:44:36;17.11;75.18
71291;DHT22;59073;51.994;4.448;2023-05-10T13:47:04;17.41;75.39
71291;DHT22;59073;51.994;4.448;2023-05-10T13:49:29;17.48;73.82
71291;DHT22;59073;51.994;4.448;2023-05-10T13:51:55;17.48;73.59
71291;DHT22;59073;51.994;4.448;2023-05-10T13:54:20;17.51;72.68
71291;DHT22;59073;51.994;4.448;2023-05-10T13:56:47;17.49;73.03
71291;DHT22;59073;51.994;4.448;2023-05-10T13:59:13;17.22;73.58
71291;DHT22;59073;51.994;4.448;2023-05-10T14:01:40;17.31;74.55
71291;DHT22;59073;51.994;4.448;2023-05-10T14:04:05;17.25;74.21
71291;DHT22;59073;51.994;4.448;2023-05-10T14:06:31;17.31;74.94
71291;DHT22;59073;51.994;4.448;2023-05-10T14:08:57;17.51;73.76
71291;DHT22;59073;51.994;4.448;2023-05-10T14:11:22;17.52;74.38
71291;DHT22;59073;51.994;4.448;2023-05-10T14:13:48;17.92;73.64
71291;DHT22;59073;51.994;4.448;2023-05-10T14:16:14;18.13;71.78
71291;DHT22;59073;51.994;4.448;2023-05-10T14:18:40;18.10;71.87
71291;DHT22;59073;51.994;4.448;2023-05-10T14:21:05;18.17;72.44
71291;DHT22;59073;51.994;4.448;2023-05-10T14:23:31;18.20;72.84
71291;DHT22;59073;51.994;4.448;2023-05-10T14:25:56;17.51;71.65
71291;DHT22;59073;51.994;4.448;2023-05-10T14:28:22;17.06;74.89
71291;DHT22;59073;51.994;4.448;2023-05-10T14:30:48;17.43;73.70
71291;DHT22;59073;51.994;4.448;2023-05-10T14:33:16;17.55;72.54
71291;DHT22;59073;51.994;4.448;2023-05-10T14:35:41;17.53;72.75
71291;DHT22;59073;51.994;4.448;2023-05-10T14:38:07;17.49;73.30
71291;DHT22;59073;51.994;4.448;2023-05-10T14:40:32;16.70;73.45
71291;DHT22;59073;51.994;4.448;2023-05-10T14:42:58;16.38;74.95
71291;DHT22;59073;51.994;4.448;2023-05-10T14:45:23;16.40;75.17
71291;DHT22;59073;51.994;4.448;2023-05-10T14:47:49;17.15;77.15
71291;DHT22;59073;51.994;4.448;2023-05-10T14:50:15;17.08;74.66
71291;DHT22;59073;51.994;4.448;2023-05-10T14:52:42;17.43;74.74
71291;DHT22;59073;51.994;4.448;2023-05-10T14:55:08;17.75;73.02
71291;DHT22;59073;51.994;4.448;2023-05-10T14:57:33;17.61;72.13
71291;DHT22;59073;51.994;4.448;2023-05-10T14:59:59;17.28;74.03
71291;DHT22;59073;51.994;4.448;2023-05-10T15:02:25;17.63;72.65
71291;DHT22;59073;51.994;4.448;2023-05-10T15:04:50;17.79;71.76
71291;DHT22;59073;51.994;4.448;2023-05-10T15:07:16;17.36;73.41
71291;DHT22;59073;51.994;4.448;2023-05-10T15:09:44;17.22;73.25
71291;DHT22;59073;51.994;4.448;2023-05-10T15:12:09;17.28;73.73
71291;DHT22;59073;51.994;4.448;2023-05-10T15:14:35;17.27;75.04
71291;DHT22;59073;51.994;4.448;2023-05-10T15:17:01;17.15;72.72
71291;DHT22;59073;51.994;4.448;2023-05-10T15:19:27;17.07;72.76
71291;DHT22;59073;51.994;4.448;2023-05-10T15:21:53;17.17;73.29
71291;DHT22;59073;51.994;4.448;2023-05-10T15:24:19;17.35;73.26
71291;DHT22;59073;51.994;4.448;2023-05-10T15:26:44;17.48;74.15
71291;DHT22;59073;51.994;4.448;2023-05-10T15:29:10;17.31;73.83
71291;DHT22;59073;51.994;4.448;2023-05-10T15:31:35;17.52;73.92
71291;DHT22;59073;51.994;4.448;2023-05-10T15:34:01;17.59;73.93
71291;DHT22;59073;51.994;4.448;2023-05-10T15:36:26;17.85;72.87
71291;DHT22;59073;51.994;4.448;2023-05-10T15:38:53;17.96;73.21
71291;DHT22;59073;51.994;4.448;2023-05-10T15:41:19;18.00;72.28
71291;DHT22;59073;51.994;4.448;2023-05-10T15:43:44;18.17;70.42
71291;DHT22;59073;51.994;4.448;2023-05-10T15:46:10;18.21;69.39
71291;DHT22;59073;51.994;4.448;2023-05-10T15:48:35;17.86;70.80
71291;DHT22;59073;51.994;4.448;2023-05-10T15:51:01;17.71;70.82
71291;DHT22;59073;51.994;4.448;2023-05-10T15:53:26;17.51;71.30
71291;DHT22;59073;51.994;4.448;2023-05-10T15:55:51;17.78;72.64
71291;DHT22;59073;51.994;4.448;2023-05-10T15:58:18;17.71;70.90